RYR8CL EPKT-EDLW
Flight info
| Callsign | RYR8CL |
|---|---|
| Flight time | 1h 19m |
| Altitude | 36000 |
| Route | ADADO DCT UTEVO DCT RAPET T843 DEMAB T842 ADEMI ADEMI2A |
| Aircraft | B738/M-SDE2E3FGHIRWXY/LB1 |
Departure
| Time | 2026-04-29 19:05 |
|---|---|
| Airport | Katowice Wojciech Korfanty International Airport (EPKT) |
Arrival
| Time | 2026-04-29 20:24 |
|---|---|
| Airport | Dortmund Airport (EDLW) |
| Time | Latitude | Longitude | Altitude | Speed | Heading |
|---|---|---|---|---|---|
| 2026-04-29 18:29 | 50.47152 | 19.07030 | 986 ft | 0 kts | 180° |
| 2026-04-29 18:58 | 50.47163 | 19.07030 | 986 ft | 2 kts | 180° |
| 2026-04-29 18:58 | 50.47178 | 19.07030 | 986 ft | 2 kts | 180° |
| 2026-04-29 18:59 | 50.47192 | 19.07030 | 986 ft | 2 kts | 180° |
| 2026-04-29 18:59 | 50.47208 | 19.07030 | 986 ft | 2 kts | 180° |
| 2026-04-29 18:59 | 50.47223 | 19.07030 | 986 ft | 2 kts | 192° |
| 2026-04-29 18:59 | 50.47235 | 19.07043 | 986 ft | 2 kts | 239° |
| 2026-04-29 19:00 | 50.47239 | 19.07058 | 987 ft | 0 kts | 266° |
| 2026-04-29 19:00 | 50.47238 | 19.07069 | 987 ft | 0 kts | 270° |
| 2026-04-29 19:01 | 50.47238 | 19.07068 | 987 ft | 1 kts | 269° |
| 2026-04-29 19:01 | 50.47237 | 19.07018 | 986 ft | 9 kts | 269° |
| 2026-04-29 19:01 | 50.47237 | 19.06842 | 984 ft | 19 kts | 269° |
| 2026-04-29 19:02 | 50.47263 | 19.06642 | 981 ft | 19 kts | 338° |
| 2026-04-29 19:02 | 50.47346 | 19.06637 | 981 ft | 17 kts | 0° |
| 2026-04-29 19:02 | 50.47429 | 19.06485 | 980 ft | 16 kts | 269° |
| 2026-04-29 19:02 | 50.47429 | 19.06249 | 978 ft | 24 kts | 270° |
| 2026-04-29 19:03 | 50.47442 | 19.06028 | 978 ft | 17 kts | 305° |
| 2026-04-29 19:03 | 50.47529 | 19.05991 | 978 ft | 10 kts | 1° |
| 2026-04-29 19:03 | 50.47599 | 19.06016 | 978 ft | 10 kts | 59° |
| 2026-04-29 19:03 | 50.47606 | 19.06087 | 978 ft | 0 kts | 86° |
| 2026-04-29 19:04 | 50.47606 | 19.06098 | 978 ft | 2 kts | 89° |
| 2026-04-29 19:04 | 50.47607 | 19.06175 | 978 ft | 28 kts | 88° |
| 2026-04-29 19:04 | 50.47607 | 19.06932 | 985 ft | 106 kts | 90° |
| 2026-04-29 19:04 | 50.47601 | 19.08429 | 1034 ft | 165 kts | 90° |
| 2026-04-29 19:05 | 50.47576 | 19.10241 | 1874 ft | 165 kts | 89° |
| 2026-04-29 19:05 | 50.47574 | 19.11846 | 2935 ft | 147 kts | 85° |
| 2026-04-29 19:05 | 50.47580 | 19.13571 | 3307 ft | 166 kts | 85° |
| 2026-04-29 19:05 | 50.47576 | 19.15356 | 3894 ft | 172 kts | 85° |
| 2026-04-29 19:06 | 50.47564 | 19.17340 | 4336 ft | 187 kts | 88° |
| 2026-04-29 19:06 | 50.47279 | 19.19469 | 4691 ft | 216 kts | 112° |
| 2026-04-29 19:06 | 50.44666 | 19.22282 | 5641 ft | 262 kts | 169° |
| 2026-04-29 19:07 | 50.42787 | 19.22437 | 6039 ft | 278 kts | 178° |
| 2026-04-29 19:07 | 50.41487 | 19.22402 | 5945 ft | 280 kts | 180° |
| 2026-04-29 19:07 | 50.38899 | 19.22218 | 5970 ft | 283 kts | 181° |
| 2026-04-29 19:07 | 50.36927 | 19.22053 | 5971 ft | 282 kts | 181° |
| 2026-04-29 19:08 | 50.35028 | 19.21892 | 5973 ft | 282 kts | 181° |
| 2026-04-29 19:08 | 50.33050 | 19.21722 | 5973 ft | 283 kts | 181° |
| 2026-04-29 19:08 | 50.31101 | 19.21554 | 5973 ft | 282 kts | 181° |
| 2026-04-29 19:08 | 50.29129 | 19.21382 | 5974 ft | 283 kts | 181° |
| 2026-04-29 19:09 | 50.27152 | 19.21201 | 6132 ft | 295 kts | 184° |
| 2026-04-29 19:09 | 50.25222 | 19.20309 | 7171 ft | 291 kts | 209° |
| 2026-04-29 19:09 | 50.23694 | 19.18336 | 8013 ft | 291 kts | 231° |
| 2026-04-29 19:09 | 50.22449 | 19.15864 | 8782 ft | 295 kts | 235° |
| 2026-04-29 19:10 | 50.21240 | 19.13283 | 9543 ft | 299 kts | 236° |
| 2026-04-29 19:10 | 50.20018 | 19.10650 | 10329 ft | 302 kts | 236° |
| 2026-04-29 19:10 | 50.18772 | 19.07958 | 10875 ft | 315 kts | 236° |
| 2026-04-29 19:10 | 50.17459 | 19.05114 | 11311 ft | 330 kts | 236° |
| 2026-04-29 19:11 | 50.16122 | 19.02213 | 12027 ft | 334 kts | 236° |
| 2026-04-29 19:11 | 50.14761 | 18.99259 | 12782 ft | 338 kts | 236° |
| 2026-04-29 19:11 | 50.13394 | 18.96306 | 13498 ft | 342 kts | 236° |
| 2026-04-29 19:11 | 50.11987 | 18.93258 | 14165 ft | 347 kts | 236° |
| 2026-04-29 19:12 | 50.10592 | 18.90231 | 14838 ft | 351 kts | 236° |
| 2026-04-29 19:12 | 50.09166 | 18.87135 | 15460 ft | 357 kts | 236° |
| 2026-04-29 19:12 | 50.07708 | 18.83966 | 16102 ft | 362 kts | 236° |
| 2026-04-29 19:12 | 50.06724 | 18.81820 | 16549 ft | 364 kts | 236° |
| 2026-04-29 19:13 | 50.04761 | 18.77540 | 17378 ft | 370 kts | 236° |
| 2026-04-29 19:13 | 50.03262 | 18.74268 | 17967 ft | 375 kts | 236° |
| 2026-04-29 19:13 | 50.01869 | 18.70855 | 18536 ft | 377 kts | 247° |
| 2026-04-29 19:13 | 50.01127 | 18.66964 | 19091 ft | 373 kts | 269° |
| 2026-04-29 19:14 | 50.01248 | 18.62977 | 19681 ft | 366 kts | 287° |
| 2026-04-29 19:14 | 50.01691 | 18.59070 | 20231 ft | 372 kts | 284° |
| 2026-04-29 19:14 | 50.01954 | 18.55103 | 20775 ft | 378 kts | 281° |
| 2026-04-29 19:14 | 50.02129 | 18.50954 | 21300 ft | 383 kts | 279° |
| 2026-04-29 19:15 | 50.02276 | 18.46837 | 21867 ft | 385 kts | 279° |
| 2026-04-29 19:15 | 50.02434 | 18.42693 | 22400 ft | 388 kts | 280° |
| 2026-04-29 19:15 | 50.02614 | 18.38524 | 22894 ft | 391 kts | 281° |
| 2026-04-29 19:15 | 50.02813 | 18.34266 | 23420 ft | 393 kts | 280° |
| 2026-04-29 19:16 | 50.03018 | 18.30105 | 23892 ft | 396 kts | 281° |
| 2026-04-29 19:16 | 50.03237 | 18.25802 | 24342 ft | 400 kts | 281° |
| 2026-04-29 19:16 | 50.03457 | 18.21529 | 24772 ft | 403 kts | 281° |
| 2026-04-29 19:16 | 50.03681 | 18.17165 | 25217 ft | 404 kts | 281° |
| 2026-04-29 19:17 | 50.03904 | 18.12811 | 25617 ft | 407 kts | 281° |
| 2026-04-29 19:17 | 50.04128 | 18.08395 | 26080 ft | 407 kts | 281° |
| 2026-04-29 19:17 | 50.04349 | 18.04025 | 26472 ft | 410 kts | 281° |
| 2026-04-29 19:17 | 50.04573 | 17.99570 | 26832 ft | 413 kts | 281° |
| 2026-04-29 19:18 | 50.04786 | 17.95294 | 27254 ft | 413 kts | 281° |
| 2026-04-29 19:18 | 50.04934 | 17.92311 | 27442 ft | 416 kts | 281° |
| 2026-04-29 19:18 | 50.05226 | 17.86382 | 27938 ft | 419 kts | 281° |
| 2026-04-29 19:18 | 50.05447 | 17.81867 | 28296 ft | 421 kts | 281° |
| 2026-04-29 19:19 | 50.05666 | 17.77356 | 28635 ft | 423 kts | 281° |
| 2026-04-29 19:19 | 50.05882 | 17.72833 | 28964 ft | 426 kts | 281° |
| 2026-04-29 19:19 | 50.06098 | 17.68283 | 29341 ft | 427 kts | 281° |
| 2026-04-29 19:19 | 50.06309 | 17.63743 | 29696 ft | 427 kts | 281° |
| 2026-04-29 19:20 | 50.06519 | 17.59249 | 29986 ft | 430 kts | 281° |
| 2026-04-29 19:20 | 50.06731 | 17.54621 | 30315 ft | 432 kts | 281° |
| 2026-04-29 19:20 | 50.06947 | 17.49956 | 30590 ft | 434 kts | 281° |
| 2026-04-29 19:20 | 50.07160 | 17.45271 | 30891 ft | 435 kts | 281° |
| 2026-04-29 19:21 | 50.07368 | 17.40632 | 31260 ft | 434 kts | 281° |
| 2026-04-29 19:21 | 50.07564 | 17.36276 | 31408 ft | 440 kts | 281° |
| 2026-04-29 19:21 | 50.07775 | 17.31549 | 31675 ft | 441 kts | 280° |
| 2026-04-29 19:21 | 50.07986 | 17.26726 | 31977 ft | 442 kts | 280° |
| 2026-04-29 19:22 | 50.08181 | 17.22246 | 32249 ft | 442 kts | 279° |
| 2026-04-29 19:22 | 50.08387 | 17.17438 | 32527 ft | 442 kts | 280° |
| 2026-04-29 19:22 | 50.08588 | 17.12690 | 32827 ft | 442 kts | 280° |
| 2026-04-29 19:22 | 50.08790 | 17.07894 | 33073 ft | 444 kts | 279° |
| 2026-04-29 19:23 | 50.08990 | 17.03142 | 33205 ft | 447 kts | 279° |
| 2026-04-29 19:23 | 50.09189 | 16.98321 | 33544 ft | 446 kts | 279° |
| 2026-04-29 19:23 | 50.09385 | 16.93533 | 33737 ft | 448 kts | 280° |
| 2026-04-29 19:23 | 50.09581 | 16.88699 | 33993 ft | 449 kts | 280° |
| 2026-04-29 19:24 | 50.09761 | 16.84212 | 34237 ft | 450 kts | 280° |
| 2026-04-29 19:24 | 50.09963 | 16.79168 | 34473 ft | 451 kts | 279° |
| 2026-04-29 19:24 | 50.10153 | 16.74344 | 34735 ft | 452 kts | 279° |
| 2026-04-29 19:24 | 50.10342 | 16.69502 | 35033 ft | 452 kts | 279° |
| 2026-04-29 19:25 | 50.10526 | 16.64675 | 35349 ft | 451 kts | 279° |
| 2026-04-29 19:25 | 50.10711 | 16.59788 | 35718 ft | 449 kts | 279° |
| 2026-04-29 19:25 | 50.10891 | 16.54970 | 36117 ft | 445 kts | 279° |
| 2026-04-29 19:25 | 50.11066 | 16.50215 | 36341 ft | 445 kts | 279° |
| 2026-04-29 19:26 | 50.11243 | 16.45441 | 36247 ft | 447 kts | 279° |
| 2026-04-29 19:26 | 50.11422 | 16.40594 | 36372 ft | 450 kts | 279° |
| 2026-04-29 19:26 | 50.11597 | 16.35755 | 36386 ft | 449 kts | 279° |
| 2026-04-29 19:27 | 50.11896 | 16.27235 | 36405 ft | 448 kts | 278° |
| 2026-04-29 19:27 | 50.12194 | 16.18725 | 36412 ft | 449 kts | 278° |
| 2026-04-29 19:28 | 50.12551 | 16.08271 | 36413 ft | 450 kts | 279° |
| 2026-04-29 19:28 | 50.12850 | 15.99312 | 36429 ft | 458 kts | 278° |
| 2026-04-29 19:29 | 50.13233 | 15.87691 | 36422 ft | 472 kts | 279° |
| 2026-04-29 19:29 | 50.13553 | 15.77456 | 36418 ft | 471 kts | 278° |
| 2026-04-29 19:30 | 50.13851 | 15.67511 | 36408 ft | 473 kts | 278° |
| 2026-04-29 19:30 | 50.14099 | 15.59014 | 36408 ft | 473 kts | 278° |
| 2026-04-29 19:31 | 50.14436 | 15.47141 | 36408 ft | 474 kts | 278° |
| 2026-04-29 19:31 | 50.14718 | 15.36948 | 36420 ft | 473 kts | 278° |
| 2026-04-29 19:32 | 50.14983 | 15.27040 | 36405 ft | 474 kts | 278° |
| 2026-04-29 19:32 | 50.15248 | 15.16835 | 36427 ft | 473 kts | 277° |
| 2026-04-29 19:33 | 50.15502 | 15.06780 | 36431 ft | 475 kts | 277° |
| 2026-04-29 19:33 | 50.15749 | 14.96555 | 36442 ft | 472 kts | 278° |
| 2026-04-29 19:34 | 50.15984 | 14.86519 | 36425 ft | 477 kts | 278° |
| 2026-04-29 19:34 | 50.16216 | 14.76253 | 36431 ft | 475 kts | 277° |
| 2026-04-29 19:35 | 50.16433 | 14.66208 | 36432 ft | 474 kts | 277° |
| 2026-04-29 19:35 | 50.16646 | 14.55966 | 36424 ft | 475 kts | 278° |
| 2026-04-29 19:36 | 50.16850 | 14.45863 | 36432 ft | 475 kts | 278° |
| 2026-04-29 19:36 | 50.17044 | 14.35675 | 36420 ft | 475 kts | 278° |
| 2026-04-29 19:37 | 50.17226 | 14.25633 | 36415 ft | 476 kts | 277° |
| 2026-04-29 19:37 | 50.17402 | 14.15430 | 36415 ft | 475 kts | 277° |
| 2026-04-29 19:38 | 50.17566 | 14.05486 | 36418 ft | 476 kts | 277° |
| 2026-04-29 19:38 | 50.17729 | 13.95116 | 36414 ft | 476 kts | 277° |
| 2026-04-29 19:39 | 50.17876 | 13.85042 | 36398 ft | 478 kts | 277° |
| 2026-04-29 19:39 | 50.18015 | 13.74824 | 36491 ft | 479 kts | 277° |
| 2026-04-29 19:39 | 50.18082 | 13.69694 | 36828 ft | 477 kts | 277° |
| 2026-04-29 19:40 | 50.18144 | 13.64682 | 37154 ft | 475 kts | 277° |
| 2026-04-29 19:40 | 50.18200 | 13.59576 | 37442 ft | 474 kts | 276° |
| 2026-04-29 19:40 | 50.18224 | 13.54481 | 37634 ft | 474 kts | 276° |
| 2026-04-29 19:40 | 50.18272 | 13.49398 | 37924 ft | 472 kts | 277° |
| 2026-04-29 19:41 | 50.18330 | 13.44378 | 38181 ft | 470 kts | 277° |
| 2026-04-29 19:41 | 50.18391 | 13.39420 | 38357 ft | 470 kts | 277° |
| 2026-04-29 19:41 | 50.18453 | 13.34434 | 38408 ft | 472 kts | 276° |
| 2026-04-29 19:42 | 50.18565 | 13.24490 | 38412 ft | 469 kts | 276° |
| 2026-04-29 19:42 | 50.18661 | 13.14344 | 38398 ft | 468 kts | 276° |
| 2026-04-29 19:43 | 50.18745 | 13.04231 | 38395 ft | 472 kts | 276° |
| 2026-04-29 19:43 | 50.18816 | 12.94105 | 38402 ft | 471 kts | 276° |
| 2026-04-29 19:44 | 50.18877 | 12.83954 | 38408 ft | 472 kts | 276° |
| 2026-04-29 19:44 | 50.18957 | 12.73923 | 38407 ft | 471 kts | 276° |
| 2026-04-29 19:45 | 50.18996 | 12.63730 | 38398 ft | 472 kts | 275° |
| 2026-04-29 19:45 | 50.19018 | 12.53673 | 38361 ft | 473 kts | 275° |
| 2026-04-29 19:46 | 50.19036 | 12.43455 | 38361 ft | 475 kts | 276° |
| 2026-04-29 19:46 | 50.19297 | 12.33368 | 38359 ft | 468 kts | 281° |
| 2026-04-29 19:47 | 50.20457 | 12.23496 | 38371 ft | 467 kts | 288° |
| 2026-04-29 19:47 | 50.22034 | 12.13704 | 38379 ft | 466 kts | 289° |
| 2026-04-29 19:48 | 50.23646 | 12.03975 | 38378 ft | 466 kts | 289° |
| 2026-04-29 19:48 | 50.25221 | 11.94249 | 38392 ft | 467 kts | 289° |
| 2026-04-29 19:49 | 50.26759 | 11.84546 | 38389 ft | 467 kts | 289° |
| 2026-04-29 19:49 | 50.28282 | 11.74786 | 38395 ft | 466 kts | 289° |
| 2026-04-29 19:50 | 50.29763 | 11.65192 | 38383 ft | 469 kts | 289° |
| 2026-04-29 19:50 | 50.31254 | 11.55411 | 38374 ft | 469 kts | 289° |
| 2026-04-29 19:51 | 50.32726 | 11.45545 | 38368 ft | 470 kts | 289° |
| 2026-04-29 19:51 | 50.34179 | 11.35685 | 38370 ft | 470 kts | 288° |
| 2026-04-29 19:52 | 50.35620 | 11.25866 | 38365 ft | 471 kts | 288° |
| 2026-04-29 19:52 | 50.37065 | 11.15965 | 38359 ft | 472 kts | 288° |
| 2026-04-29 19:53 | 50.38516 | 11.05994 | 38075 ft | 476 kts | 288° |
| 2026-04-29 19:53 | 50.39233 | 11.01046 | 37719 ft | 471 kts | 288° |
| 2026-04-29 19:53 | 50.39933 | 10.96164 | 37264 ft | 467 kts | 288° |
| 2026-04-29 19:53 | 50.40643 | 10.91215 | 36506 ft | 471 kts | 289° |
| 2026-04-29 19:54 | 50.42089 | 10.81172 | 35106 ft | 483 kts | 290° |
| 2026-04-29 19:54 | 50.42827 | 10.76028 | 34305 ft | 486 kts | 289° |
| 2026-04-29 19:54 | 50.43554 | 10.70926 | 33519 ft | 487 kts | 289° |
| 2026-04-29 19:55 | 50.44292 | 10.65750 | 32771 ft | 487 kts | 289° |
| 2026-04-29 19:55 | 50.45010 | 10.60736 | 32211 ft | 488 kts | 290° |
| 2026-04-29 19:55 | 50.45755 | 10.55564 | 31557 ft | 491 kts | 290° |
| 2026-04-29 19:55 | 50.46500 | 10.50392 | 30901 ft | 492 kts | 290° |
| 2026-04-29 19:56 | 50.47242 | 10.45197 | 30226 ft | 489 kts | 289° |
| 2026-04-29 19:56 | 50.47958 | 10.40134 | 29555 ft | 486 kts | 289° |
| 2026-04-29 19:56 | 50.48682 | 10.34965 | 28864 ft | 483 kts | 288° |
| 2026-04-29 19:56 | 50.49384 | 10.29983 | 28197 ft | 478 kts | 290° |
| 2026-04-29 19:57 | 50.50104 | 10.26146 | 27665 ft | 469 kts | 296° |
| 2026-04-29 19:57 | 50.50791 | 10.23508 | 27281 ft | 458 kts | 302° |
| 2026-04-29 19:57 | 50.52717 | 10.18318 | 26444 ft | 438 kts | 312° |
| 2026-04-29 19:57 | 50.54665 | 10.14264 | 25714 ft | 426 kts | 316° |
| 2026-04-29 19:58 | 50.56514 | 10.10612 | 25033 ft | 419 kts | 316° |
| 2026-04-29 19:58 | 50.58284 | 10.07072 | 24470 ft | 411 kts | 315° |
| 2026-04-29 19:58 | 50.59973 | 10.03560 | 24084 ft | 400 kts | 314° |
| 2026-04-29 19:58 | 50.61594 | 10.00040 | 23817 ft | 392 kts | 313° |
| 2026-04-29 19:59 | 50.63163 | 9.96531 | 23560 ft | 397 kts | 313° |
| 2026-04-29 19:59 | 50.64717 | 9.92965 | 23305 ft | 394 kts | 312° |
| 2026-04-29 19:59 | 50.66234 | 9.89400 | 23052 ft | 394 kts | 311° |
| 2026-04-29 19:59 | 50.67749 | 9.85790 | 22796 ft | 394 kts | 311° |
| 2026-04-29 20:00 | 50.69248 | 9.82182 | 22541 ft | 393 kts | 311° |
| 2026-04-29 20:00 | 50.70723 | 9.78603 | 22285 ft | 390 kts | 310° |
| 2026-04-29 20:00 | 50.72177 | 9.75061 | 22033 ft | 389 kts | 310° |
| 2026-04-29 20:00 | 50.73636 | 9.71495 | 21780 ft | 388 kts | 310° |
| 2026-04-29 20:01 | 50.75091 | 9.67930 | 21525 ft | 386 kts | 310° |
| 2026-04-29 20:01 | 50.76540 | 9.64372 | 21268 ft | 383 kts | 310° |
| 2026-04-29 20:01 | 50.77988 | 9.60827 | 21016 ft | 384 kts | 310° |
| 2026-04-29 20:01 | 50.79421 | 9.57308 | 20763 ft | 382 kts | 310° |
| 2026-04-29 20:02 | 50.80856 | 9.53777 | 20512 ft | 382 kts | 310° |
| 2026-04-29 20:02 | 50.82281 | 9.50261 | 20160 ft | 381 kts | 310° |
| 2026-04-29 20:02 | 50.83714 | 9.46725 | 19576 ft | 381 kts | 310° |
| 2026-04-29 20:02 | 50.84641 | 9.44433 | 19237 ft | 376 kts | 310° |
| 2026-04-29 20:03 | 50.86502 | 9.39817 | 18533 ft | 371 kts | 309° |
| 2026-04-29 20:03 | 50.87783 | 9.36284 | 18009 ft | 372 kts | 304° |
| 2026-04-29 20:03 | 50.88861 | 9.32572 | 17482 ft | 373 kts | 298° |
| 2026-04-29 20:03 | 50.89813 | 9.28817 | 16979 ft | 371 kts | 297° |
| 2026-04-29 20:04 | 50.90588 | 9.25608 | 16524 ft | 367 kts | 296° |
| 2026-04-29 20:04 | 50.91559 | 9.21596 | 15968 ft | 364 kts | 297° |
| 2026-04-29 20:04 | 50.92484 | 9.17851 | 15419 ft | 361 kts | 297° |
| 2026-04-29 20:04 | 50.93395 | 9.14231 | 14910 ft | 357 kts | 297° |
| 2026-04-29 20:05 | 50.94320 | 9.10592 | 14410 ft | 353 kts | 297° |
| 2026-04-29 20:05 | 50.95193 | 9.07153 | 14123 ft | 326 kts | 297° |
| 2026-04-29 20:05 | 50.96007 | 9.03929 | 13665 ft | 304 kts | 297° |
| 2026-04-29 20:05 | 50.96772 | 9.00923 | 13137 ft | 295 kts | 297° |
| 2026-04-29 20:06 | 50.97552 | 8.97899 | 12673 ft | 288 kts | 297° |
| 2026-04-29 20:06 | 50.98285 | 8.95040 | 11980 ft | 283 kts | 297° |
| 2026-04-29 20:06 | 50.99018 | 8.92185 | 11507 ft | 280 kts | 297° |
| 2026-04-29 20:06 | 50.99765 | 8.89277 | 11386 ft | 287 kts | 297° |
| 2026-04-29 20:07 | 51.00519 | 8.86327 | 11371 ft | 290 kts | 297° |
| 2026-04-29 20:07 | 51.01263 | 8.83390 | 11374 ft | 291 kts | 297° |
| 2026-04-29 20:07 | 51.02020 | 8.80394 | 11379 ft | 291 kts | 297° |
| 2026-04-29 20:07 | 51.02897 | 8.77330 | 11396 ft | 307 kts | 301° |
| 2026-04-29 20:08 | 51.03730 | 8.74339 | 11377 ft | 293 kts | 296° |
| 2026-04-29 20:08 | 51.04208 | 8.72320 | 11375 ft | 292 kts | 295° |
| 2026-04-29 20:08 | 51.05121 | 8.68301 | 11370 ft | 291 kts | 295° |
| 2026-04-29 20:08 | 51.05840 | 8.65271 | 11372 ft | 300 kts | 296° |
| 2026-04-29 20:09 | 51.06634 | 8.62065 | 11367 ft | 316 kts | 296° |
| 2026-04-29 20:09 | 51.07456 | 8.58790 | 11355 ft | 322 kts | 296° |
| 2026-04-29 20:09 | 51.08279 | 8.55500 | 11356 ft | 321 kts | 296° |
| 2026-04-29 20:09 | 51.09060 | 8.52342 | 11349 ft | 291 kts | 297° |
| 2026-04-29 20:10 | 51.09790 | 8.49385 | 11367 ft | 291 kts | 297° |
| 2026-04-29 20:10 | 51.10531 | 8.46461 | 11278 ft | 317 kts | 297° |
| 2026-04-29 20:10 | 51.11389 | 8.43081 | 11027 ft | 336 kts | 296° |
| 2026-04-29 20:10 | 51.12246 | 8.39652 | 10780 ft | 339 kts | 296° |
| 2026-04-29 20:11 | 51.13110 | 8.36156 | 10528 ft | 337 kts | 296° |
| 2026-04-29 20:11 | 51.13919 | 8.32862 | 10287 ft | 337 kts | 295° |
| 2026-04-29 20:11 | 51.14759 | 8.29450 | 10040 ft | 337 kts | 295° |
| 2026-04-29 20:11 | 51.15613 | 8.25979 | 9787 ft | 335 kts | 295° |
| 2026-04-29 20:12 | 51.16470 | 8.22499 | 9531 ft | 335 kts | 295° |
| 2026-04-29 20:12 | 51.17309 | 8.19091 | 9281 ft | 334 kts | 294° |
| 2026-04-29 20:12 | 51.18151 | 8.15662 | 9030 ft | 334 kts | 295° |
| 2026-04-29 20:12 | 51.18999 | 8.12213 | 8780 ft | 333 kts | 295° |
| 2026-04-29 20:13 | 51.19844 | 8.08764 | 8520 ft | 331 kts | 294° |
| 2026-04-29 20:13 | 51.20676 | 8.05362 | 8268 ft | 331 kts | 294° |
| 2026-04-29 20:13 | 51.21479 | 8.02075 | 8022 ft | 329 kts | 294° |
| 2026-04-29 20:13 | 51.22313 | 7.98655 | 7766 ft | 328 kts | 294° |
| 2026-04-29 20:14 | 51.23126 | 7.95318 | 7515 ft | 327 kts | 294° |
| 2026-04-29 20:14 | 51.23904 | 7.92121 | 7275 ft | 328 kts | 294° |
| 2026-04-29 20:14 | 51.24739 | 7.88685 | 7018 ft | 326 kts | 294° |
| 2026-04-29 20:14 | 51.25528 | 7.85435 | 6768 ft | 325 kts | 294° |
| 2026-04-29 20:15 | 51.26331 | 7.82126 | 6516 ft | 324 kts | 294° |
| 2026-04-29 20:15 | 51.27130 | 7.78823 | 6353 ft | 316 kts | 294° |
| 2026-04-29 20:15 | 51.27898 | 7.75627 | 6345 ft | 299 kts | 294° |
| 2026-04-29 20:15 | 51.28617 | 7.72626 | 6357 ft | 291 kts | 294° |
| 2026-04-29 20:16 | 51.29348 | 7.69588 | 6352 ft | 293 kts | 294° |
| 2026-04-29 20:16 | 51.30071 | 7.66589 | 6360 ft | 292 kts | 294° |
| 2026-04-29 20:16 | 51.30796 | 7.63577 | 6352 ft | 292 kts | 294° |
| 2026-04-29 20:16 | 51.31523 | 7.60544 | 6193 ft | 288 kts | 294° |
| 2026-04-29 20:17 | 51.32173 | 7.57815 | 6104 ft | 278 kts | 294° |
| 2026-04-29 20:17 | 51.32883 | 7.54836 | 5921 ft | 271 kts | 294° |
| 2026-04-29 20:17 | 51.33550 | 7.52054 | 5565 ft | 272 kts | 294° |
| 2026-04-29 20:17 | 51.34271 | 7.49239 | 5057 ft | 277 kts | 302° |
| 2026-04-29 20:18 | 51.35452 | 7.46844 | 4664 ft | 271 kts | 321° |
| 2026-04-29 20:18 | 51.36812 | 7.44860 | 4565 ft | 260 kts | 324° |
| 2026-04-29 20:18 | 51.38121 | 7.42990 | 4458 ft | 251 kts | 323° |
| 2026-04-29 20:18 | 51.39424 | 7.41131 | 4092 ft | 254 kts | 324° |
| 2026-04-29 20:19 | 51.40758 | 7.39233 | 3640 ft | 261 kts | 323° |
| 2026-04-29 20:19 | 51.42165 | 7.37411 | 3185 ft | 262 kts | 335° |
| 2026-04-29 20:19 | 51.43836 | 7.36551 | 2732 ft | 249 kts | 4° |
| 2026-04-29 20:19 | 51.45394 | 7.37096 | 2496 ft | 217 kts | 36° |
| 2026-04-29 20:20 | 51.46318 | 7.38655 | 2474 ft | 183 kts | 70° |
| 2026-04-29 20:20 | 51.46438 | 7.40526 | 2481 ft | 161 kts | 96° |
| 2026-04-29 20:20 | 51.46324 | 7.42280 | 2489 ft | 157 kts | 95° |
| 2026-04-29 20:20 | 51.46243 | 7.43994 | 2489 ft | 154 kts | 93° |
| 2026-04-29 20:21 | 51.46370 | 7.45591 | 2476 ft | 139 kts | 72° |
| 2026-04-29 20:21 | 51.46814 | 7.46953 | 2394 ft | 139 kts | 68° |
| 2026-04-29 20:21 | 51.47255 | 7.48305 | 2206 ft | 138 kts | 67° |
| 2026-04-29 20:21 | 51.47724 | 7.49630 | 2030 ft | 138 kts | 65° |
| 2026-04-29 20:22 | 51.48185 | 7.50921 | 1809 ft | 127 kts | 67° |
| 2026-04-29 20:22 | 51.48597 | 7.52090 | 1678 ft | 119 kts | 64° |
| 2026-04-29 20:22 | 51.49009 | 7.53234 | 1502 ft | 120 kts | 66° |
| 2026-04-29 20:22 | 51.49414 | 7.54403 | 1338 ft | 121 kts | 65° |
| 2026-04-29 20:23 | 51.49836 | 7.55586 | 1177 ft | 123 kts | 65° |
| 2026-04-29 20:23 | 51.50259 | 7.56775 | 1010 ft | 124 kts | 63° |
| 2026-04-29 20:23 | 51.50692 | 7.57966 | 850 ft | 126 kts | 63° |
| 2026-04-29 20:23 | 51.51133 | 7.59216 | 645 ft | 128 kts | 62° |
| 2026-04-29 20:24 | 51.51575 | 7.60465 | 461 ft | 130 kts | 63° |
| 2026-04-29 20:24 | 51.51974 | 7.61629 | 427 ft | 92 kts | 60° |
| 2026-04-29 20:24 | 51.52149 | 7.62113 | 427 ft | 27 kts | 60° |
| 2026-04-29 20:24 | 51.52200 | 7.62277 | 427 ft | 5 kts | 111° |
| 2026-04-29 20:25 | 51.52175 | 7.62318 | 427 ft | 4 kts | 148° |
| 2026-04-29 20:25 | 51.52137 | 7.62355 | 427 ft | 12 kts | 151° |
| 2026-04-29 20:25 | 51.52043 | 7.62364 | 427 ft | 15 kts | 236° |
| 2026-04-29 20:25 | 51.51993 | 7.62222 | 427 ft | 14 kts | 241° |
| 2026-04-29 20:26 | 51.51946 | 7.62089 | 427 ft | 14 kts | 241° |
| 2026-04-29 20:26 | 51.51857 | 7.61838 | 427 ft | 33 kts | 241° |
| 2026-04-29 20:26 | 51.51749 | 7.61532 | 427 ft | 31 kts | 240° |
| 2026-04-29 20:26 | 51.51646 | 7.61242 | 427 ft | 27 kts | 242° |
| 2026-04-29 20:27 | 51.51545 | 7.61053 | 427 ft | 17 kts | 175° |
| 2026-04-29 20:27 | 51.51491 | 7.61087 | 427 ft | 5 kts | 147° |
| 2026-04-29 20:27 | 51.51469 | 7.61113 | 427 ft | 1 kts | 143° |
| 2026-04-29 20:27 | 51.51467 | 7.61114 | 427 ft | 0 kts | 143° |